ENBE weather

Balder A Platform
Norway

Public forecast

Using degrees Celsius for public forecast. Weather courtesy of forecast.io.

Closest aviation weather report (METAR) to Balder A Platform

Closest report is Ula Platform, 15.8 nm (29.2 km) ESE. Retrieved 2019/10/20 04:20 UTC (16 minutes ago):

ENLA 200420Z AUTO 33009KT 9999NDV -SHRA BKN035/// 10/07 Q//// W///S5

Closest aviation forecast (TAF) to Balder A Platform

Closest forecast is Oseberg A Platform, 79.4 nm (147.0 km) N. Retrieved 2019-10-20 03:57 UTC (39 minutes ago):

TAF TAF ENOA 200200Z 2003/2103 04018KT 9999 FEW020 SCT050 BECMG 2009/2012 02028KT BECMG 2022/2024 35018KT